Share

Maysville, KY

11:04 AM EDT on April 23, 2014 (GMT -0400)
Bon Haven Dr (KKYMAYSV2) Elev 896 ft | 38.64 °N, 83.78 °W | Change Station

Current weather conditions updated 40 seconds ago

Clear
Clear
51.6 °F
Feels Like 51.6 °F
N
3.6
Wind Variable Wind from NNW
Gusts 7.6 mph
Sunrise 6:47 AM
Sunset 8:19 PM
Moon Waning Crescent

Today is forecast to be Much Cooler than yesterday.

Pressure 30.10 in
Visibility 10.0 miles
Clouds Clear
Dew Point 26 °F
Humidity 36%
Rainfall 0.00 in
Snow Depth Not available.
UV 7 out of 16
Pollen 10.10 out of 12
Air Quality Not available.
Flu Activity Sporadic
METAR KIOB 231455Z AUTO 33003KT 10SM CLR 09/00 A3010 RMK AO2

More Conditions Fewer Conditions

Pressure 30.10 in
Visibility 10.0 miles
Clouds Clear
Dew Point 26 °F
Humidity 36%
Rainfall 0.00 in
Snow Depth Not available.
UV 7 out of 16
Pollen 10.10 out of 12
Air Quality Not available.
Flu Activity Sporadic
METAR KIOB 231455Z AUTO 33003KT 10SM CLR 09/00 A3010 RMK AO2

More Conditions Fewer Conditions

10-Day Weather Forecast

Almanac

Astronomy

Apr. 23, 2014 Rise Set
Actual Time 6:47 AM EDT 8:19 PM EDT
Civil Twilight 6:20 AM EDT 8:47 PM EDT
Nautical Twilight 5:46 AM EDT 9:21 PM EDT
Astronomical Twilight 5:10 AM EDT 9:57 PM EDT
Moon 3:14 AM EDT 2:30 PM EDT
Length of Visible Light 14h 27m
Length of Day
13h 31m
Tomorrow will be 2m 16s longer.
Waning Crescent, 35% of the Moon is Illuminated
Today
Waning Crescent
Apr 29
New
May 6
First Quarter
May 14
Full
May 21
Last Quarter

Today's Extremes

State Highs State Lows

Community

  • spring flowers
    spring flowers
  • Earth Day Spectrum Ove' Blue
    Earth Day Spectrum Ove' Blue
  • BARN B&W
    BARN B&W
  • April Sunset
    April Sunset
  • Waiting..
    Waiting..

WunderPhotos

Upload Photos

1,704,303 photos uploaded!

Nearby

Snow Depth

Station Depth Elevation
No new snow has been reported.

Coastal Water Temperatures

Place Temperature
No Stations Reporting

Earthquake Activity

City Distance Mag. Time & Date
No recent earthquake activity has been reported nearby.
Minimum magnitude displayed is 2.5.

Nearby Weather Stations

Station Location Temp. Dew Point Humidity Wind Precip. Elev Updated Type
Bon Haven Dr, Maysville, KY 51.6 °F 26 °F 36% NNW  at  3.6 mph 0.00 in / hr 896 ft 11:04 AM EDT Normal
Polecat Pike, Maysville, KY 51.3 °F 36 °F 56% West  at  4.7 mph - / hr 866 ft 10:53 AM EDT Normal
Edge of Appalachia Preserve, West Union, OH 54.0 °F 32 °F 44% WNW  at  1.1 mph 0.00 in / hr 663 ft 11:04 AM EDT Rapid Fire

Show More Stations Show Fewer Stations

What do you think?

We're not finished. Please let us know what you like, what you don't like, and what you are still missing.